Cruise Bonaria — ICUS — position and weather

sailwx.info

Track history (hours):
 
Tides and Currents Weather Stations Pressure Air Temp Water Temp Dewpoint Dewpoint Depression Visibility Wind Speed Wind Dir Waves Ship Positions

Cruise Bonaria

Last reported at 2018-Apr-23 11:30 UTC. Time now 2018-Apr-23 11:37 UTC.
Position N 42°36' E 009°57'.

Length 214 m; draft 6.7 m.

Type: Ship. MMSI: 247322400.

Date/timePositionNaut miles runAvg speedWind from/ knotsBaromVisibWave heightAir tempDewpointWater temp
2018-Apr-23 11:30N 42°36' E 009°57'1121.4
2018-Apr-23 11:00N 42°47' E 009°60'1121.4
2018-Apr-23 10:30N 42°57' E 010°03'1121.5
2018-Apr-23 10:00N 43°08' E 010°06'1121.7
2018-Apr-23 09:30N 43°18' E 010°09'1121.1
2018-Apr-23 09:00N 43°29' E 010°12'611.1
2018-Apr-23 08:30N 43°33' E 010°17'2 4.8
2018-Apr-23 08:01N 43°35' E 010°18'0 0.0
2018-Apr-23 07:31N 43°35' E 010°18'0 0.0
2018-Apr-23 07:00N 43°35' E 010°18'0 0.0
2018-Apr-23 06:30N 43°35' E 010°18'0 0.0
2018-Apr-23 06:00N 43°35' E 010°18'0 0.0
2018-Apr-23 05:30N 43°35' E 010°18'0 0.1
2018-Apr-23 05:00N 43°35' E 010°18'2 4.2
2018-Apr-23 04:30N 43°33' E 010°17'510.9
2018-Apr-23 04:00N 43°28' E 010°13'1019.4
2018-Apr-23 03:30N 43°19' E 010°09'1019.3
2018-Apr-23 03:01N 43°10' E 010°06'1019.3
2018-Apr-23 02:30N 43°00' E 010°03'1019.3
2018-Apr-23 02:01N 42°51' E 009°60'1019.5
2018-Apr-23 01:31N 42°41' E 009°57'1019.8
2018-Apr-23 01:01N 42°32' E 009°57'1019.6
2018-Apr-23 00:31N 42°22' E 009°56'1019.8
2018-Apr-23 00:01N 42°12' E 009°54'1019.7
2018-Apr-22 23:31N 42°02' E 009°53'30 1.2
2018-Apr-21 23:22N 42°32' E 009°57'720.0
2018-Apr-21 23:00N 42°39' E 009°58'1020.0
2018-Apr-21 22:30N 42°49' E 009°60'1019.9
2018-Apr-21 22:00N 42°58' E 010°03'1020.2
2018-Apr-21 21:30N 43°08' E 010°06'1020.1
2018-Apr-21 21:00N 43°18' E 010°08'1019.9
2018-Apr-21 20:30N 43°28' E 010°12'612.9
2018-Apr-21 20:00N 43°32' E 010°17'2 4.6
2018-Apr-21 19:29N 43°35' E 010°18'0 0.0
2018-Apr-21 18:59N 43°35' E 010°18'0 0.0
2018-Apr-21 18:29N 43°35' E 010°18'0 0.0
2018-Apr-21 17:59N 43°35' E 010°18'0 0.0
2018-Apr-21 17:29N 43°35' E 010°18'0 0.0
2018-Apr-21 16:59N 43°35' E 010°18'0 0.0
2018-Apr-21 16:29N 43°35' E 010°18'0 0.0
2018-Apr-21 15:59N 43°35' E 010°18'0 0.0
2018-Apr-21 15:29N 43°35' E 010°18'0 0.0
2018-Apr-21 14:59N 43°35' E 010°18'0 0.0
2018-Apr-21 14:26N 43°35' E 010°18'0 0.0
2018-Apr-21 13:59N 43°35' E 010°18'0 0.0
2018-Apr-21 13:29N 43°35' E 010°18'0 0.0
2018-Apr-21 12:59N 43°35' E 010°18'0 0.0
2018-Apr-21 12:29N 43°35' E 010°18'0 0.0
2018-Apr-21 11:59N 43°35' E 010°18'0 0.0
2018-Apr-21 11:29N 43°35' E 010°18'0 0.0
2018-Apr-21 10:59N 43°35' E 010°18'0 0.0
2018-Apr-21 10:29N 43°35' E 010°18'0 0.0
2018-Apr-21 09:59N 43°35' E 010°18'0 0.0
2018-Apr-21 09:29N 43°35' E 010°18'0 0.0
2018-Apr-21 08:59N 43°35' E 010°18'0 0.0
2018-Apr-21 08:29N 43°35' E 010°18'0 0.0
2018-Apr-21 07:59N 43°35' E 010°18'0 0.0
2018-Apr-21 07:30N 43°35' E 010°18'0 0.0
2018-Apr-21 07:00N 43°35' E 010°18'0 0.0
2018-Apr-21 06:30N 43°35' E 010°18'0 0.0
2018-Apr-21 06:00N 43°35' E 010°18'0 0.0
2018-Apr-21 05:30N 43°35' E 010°18'1 1.4
2018-Apr-21 05:01N 43°34' E 010°18'3 6.2
2018-Apr-21 04:31N 43°32' E 010°16'917.9
2018-Apr-21 04:01N 43°24' E 010°11'1121.8
2018-Apr-21 03:31N 43°13' E 010°07'1121.3
2018-Apr-21 03:01N 43°03' E 010°04'1121.2
2018-Apr-21 02:30N 42°52' E 010°00'1121.2
2018-Apr-21 02:01N 42°42' E 009°58'4 0.3
2018-Apr-20 11:48N 42°46' E 009°58'621.6
2018-Apr-20 11:31N 42°52' E 009°60'1121.4
2018-Apr-20 11:00N 43°02' E 010°03'1121.4
2018-Apr-20 10:30N 43°13' E 010°07'1121.4
2018-Apr-20 10:01N 43°23' E 010°10'918.5
2018-Apr-20 09:30N 43°32' E 010°15'4 7.3
2018-Apr-20 09:00N 43°35' E 010°18'0 0.2
2018-Apr-20 08:30N 43°35' E 010°18'0 0.0
2018-Apr-20 08:00N 43°35' E 010°18'0 0.0
2018-Apr-20 07:31N 43°35' E 010°18'0 0.0
2018-Apr-20 07:00N 43°35' E 010°18'0 0.0
2018-Apr-20 06:30N 43°35' E 010°18'0 0.0
2018-Apr-20 06:00N 43°35' E 010°18'0 0.0
2018-Apr-20 05:30N 43°35' E 010°18'1 1.4
2018-Apr-20 05:00N 43°34' E 010°18'4 8.1
2018-Apr-20 04:30N 43°31' E 010°15'1019.8
2018-Apr-20 04:01N 43°22' E 010°10'1122.1
2018-Apr-20 03:31N 43°11' E 010°06'1122.0
2018-Apr-20 03:00N 43°00' E 010°02'1121.8
2018-Apr-20 02:29N 42°49' E 009°59'8 0.5
2018-Apr-19 11:15N 42°57' E 010°02'521.9
2018-Apr-19 11:00N 43°03' E 010°03'1121.7
2018-Apr-19 10:30N 43°13' E 010°07'1121.8
2018-Apr-19 10:00N 43°24' E 010°10'917.7
2018-Apr-19 09:30N 43°32' E 010°15'4 7.1
2018-Apr-19 09:00N 43°35' E 010°18'0 0.0
2018-Apr-19 08:30N 43°35' E 010°18'0 0.0
2018-Apr-19 08:01N 43°35' E 010°18'0 0.0
2018-Apr-19 07:30N 43°35' E 010°18'0 0.0
2018-Apr-19 07:00N 43°35' E 010°18'0 0.0
2018-Apr-19 06:31N 43°35' E 010°18'0 0.0
2018-Apr-19 06:01N 43°35' E 010°18'0 0.0
2018-Apr-19 05:30N 43°35' E 010°18'2 3.7
2018-Apr-19 05:00N 43°33' E 010°17'3 6.1
2018-Apr-19 04:31N 43°31' E 010°14'816.0
2018-Apr-19 04:01N 43°24' E 010°11'1020.6
2018-Apr-19 03:30N 43°13' E 010°07'1020.5
2018-Apr-19 03:01N 43°04' E 010°04'1020.8
2018-Apr-19 02:30N 42°53' E 010°01'1220.8
2018-Apr-19 01:55N 42°41' E 009°58'11 0.8
2018-Apr-18 10:58N 42°52' E 009°60'1124.4
2018-Apr-18 10:31N 43°03' E 010°03'1224.4
2018-Apr-18 10:01N 43°15' E 010°08'1224.0
2018-Apr-18 09:31N 43°27' E 010°11'714.7
2018-Apr-18 09:00N 43°33' E 010°17'2 4.6
2018-Apr-18 08:30N 43°35' E 010°18'0 0.0
2018-Apr-18 08:00N 43°35' E 010°18'0 0.0
2018-Apr-18 07:30N 43°35' E 010°18'0 0.0
2018-Apr-18 07:00N 43°35' E 010°18'0 0.0
2018-Apr-18 06:30N 43°35' E 010°18'0 0.0
2018-Apr-18 06:00N 43°35' E 010°18'0 0.0
2018-Apr-18 05:30N 43°35' E 010°18'0 0.0
2018-Apr-18 05:00N 43°35' E 010°18'0 0.0
2018-Apr-18 04:30N 43°35' E 010°18'0 0.0
2018-Apr-18 04:00N 43°35' E 010°18'0 0.0
2018-Apr-18 03:30N 43°35' E 010°18'0 0.0
2018-Apr-18 03:00N 43°35' E 010°18'0 0.0
2018-Apr-18 02:30N 43°35' E 010°18'0 0.0
2018-Apr-18 02:00N 43°35' E 010°18'0 0.0
2018-Apr-18 01:30N 43°35' E 010°18'0 0.0
2018-Apr-18 01:00N 43°35' E 010°18'0 0.0
2018-Apr-18 00:30N 43°35' E 010°18'0 0.0
2018-Apr-18 00:00N 43°35' E 010°18'0 0.0
2018-Apr-17 23:30N 43°35' E 010°18'0 0.0
2018-Apr-17 23:00N 43°35' E 010°18'1 1.2
2018-Apr-17 22:30N 43°34' E 010°18'3 6.8
2018-Apr-17 22:00N 43°31' E 010°16'1 1.5
2018-Apr-17 21:30N 43°31' E 010°15'714.1
2018-Apr-17 21:01N 43°24' E 010°15'1223.2
2018-Apr-17 20:31N 43°13' E 010°20'1223.3
2018-Apr-17 20:01N 43°02' E 010°24'1122.8
2018-Apr-17 19:30N 42°51' E 010°31'1122.7
2018-Apr-17 19:00N 42°42' E 010°39'1122.5
2018-Apr-17 18:30N 42°33' E 010°49'28422.8
2018-Apr-17 06:03N 38°59' E 014°56'520.9
2018-Apr-17 05:48N 38°55' E 014°60'721.2
2018-Apr-17 05:28N 38°50' E 015°06'1021.6
2018-Apr-17 05:00N 38°42' E 015°14'1123.0
2018-Apr-17 04:30N 38°34' E 015°24'1123.1
2018-Apr-17 04:01N 38°25' E 015°34'1121.7
2018-Apr-17 03:29N 38°17' E 015°43'1020.0
2018-Apr-17 03:00N 38°09' E 015°36'1020.2
2018-Apr-17 02:30N 37°59' E 015°36'1019.3
2018-Apr-17 02:00N 37°53' E 015°45'40720.1
2018-Apr-16 05:43N 37°27' E 024°19'10823.3
2018-Apr-16 01:03N 39°05' E 025°19'123.0
2018-Apr-16 01:00N 39°06' E 025°20'3723.1
2018-Apr-15 23:23N 39°39' E 025°43'923.0
2018-Apr-15 22:59N 39°47' E 025°49'  
Track history (hours):
 
Tides and Currents Weather Stations Pressure Air Temp Water Temp Dewpoint Dewpoint Depression Visibility Wind Speed Wind Dir Waves Ship Positions

Cruise Bonaria

Last reported at 2018-Apr-23 11:30 UTC. Time now 2018-Apr-23 11:37 UTC.
Position N 42°36' E 009°57'.

Length 214 m; draft 6.7 m.

Type: Ship. MMSI: 247322400.

Date/timePositionNaut miles runAvg speedWind from/ knotsBaromVisibWave heightAir tempDewpointWater temp
2018-Apr-23 11:30N 42°36' E 009°57'1121.4
2018-Apr-23 11:00N 42°47' E 009°60'1121.4
2018-Apr-23 10:30N 42°57' E 010°03'1121.5
2018-Apr-23 10:00N 43°08' E 010°06'1121.7
2018-Apr-23 09:30N 43°18' E 010°09'1121.1
2018-Apr-23 09:00N 43°29' E 010°12'611.1
2018-Apr-23 08:30N 43°33' E 010°17'2 4.8
2018-Apr-23 08:01N 43°35' E 010°18'0 0.0
2018-Apr-23 07:31N 43°35' E 010°18'0 0.0
2018-Apr-23 07:00N 43°35' E 010°18'0 0.0
2018-Apr-23 06:30N 43°35' E 010°18'0 0.0
2018-Apr-23 06:00N 43°35' E 010°18'0 0.0
2018-Apr-23 05:30N 43°35' E 010°18'0 0.1
2018-Apr-23 05:00N 43°35' E 010°18'2 4.2
2018-Apr-23 04:30N 43°33' E 010°17'510.9
2018-Apr-23 04:00N 43°28' E 010°13'1019.4
2018-Apr-23 03:30N 43°19' E 010°09'1019.3
2018-Apr-23 03:01N 43°10' E 010°06'1019.3
2018-Apr-23 02:30N 43°00' E 010°03'1019.3
2018-Apr-23 02:01N 42°51' E 009°60'1019.5
2018-Apr-23 01:31N 42°41' E 009°57'1019.8
2018-Apr-23 01:01N 42°32' E 009°57'1019.6
2018-Apr-23 00:31N 42°22' E 009°56'1019.8
2018-Apr-23 00:01N 42°12' E 009°54'1019.7
2018-Apr-22 23:31N 42°02' E 009°53'30 1.2
2018-Apr-21 23:22N 42°32' E 009°57'720.0
2018-Apr-21 23:00N 42°39' E 009°58'1020.0
2018-Apr-21 22:30N 42°49' E 009°60'1019.9
2018-Apr-21 22:00N 42°58' E 010°03'1020.2
2018-Apr-21 21:30N 43°08' E 010°06'1020.1
2018-Apr-21 21:00N 43°18' E 010°08'1019.9
2018-Apr-21 20:30N 43°28' E 010°12'612.9
2018-Apr-21 20:00N 43°32' E 010°17'2 4.6
2018-Apr-21 19:29N 43°35' E 010°18'0 0.0
2018-Apr-21 18:59N 43°35' E 010°18'0 0.0
2018-Apr-21 18:29N 43°35' E 010°18'0 0.0
2018-Apr-21 17:59N 43°35' E 010°18'0 0.0
2018-Apr-21 17:29N 43°35' E 010°18'0 0.0
2018-Apr-21 16:59N 43°35' E 010°18'0 0.0
2018-Apr-21 16:29N 43°35' E 010°18'0 0.0
2018-Apr-21 15:59N 43°35' E 010°18'0 0.0
2018-Apr-21 15:29N 43°35' E 010°18'0 0.0
2018-Apr-21 14:59N 43°35' E 010°18'0 0.0
2018-Apr-21 14:26N 43°35' E 010°18'0 0.0
2018-Apr-21 13:59N 43°35' E 010°18'0 0.0
2018-Apr-21 13:29N 43°35' E 010°18'0 0.0
2018-Apr-21 12:59N 43°35' E 010°18'0 0.0
2018-Apr-21 12:29N 43°35' E 010°18'0 0.0
2018-Apr-21 11:59N 43°35' E 010°18'0 0.0
2018-Apr-21 11:29N 43°35' E 010°18'0 0.0
2018-Apr-21 10:59N 43°35' E 010°18'0 0.0
2018-Apr-21 10:29N 43°35' E 010°18'0 0.0
2018-Apr-21 09:59N 43°35' E 010°18'0 0.0
2018-Apr-21 09:29N 43°35' E 010°18'0 0.0
2018-Apr-21 08:59N 43°35' E 010°18'0 0.0
2018-Apr-21 08:29N 43°35' E 010°18'0 0.0
2018-Apr-21 07:59N 43°35' E 010°18'0 0.0
2018-Apr-21 07:30N 43°35' E 010°18'0 0.0
2018-Apr-21 07:00N 43°35' E 010°18'0 0.0
2018-Apr-21 06:30N 43°35' E 010°18'0 0.0
2018-Apr-21 06:00N 43°35' E 010°18'0 0.0
2018-Apr-21 05:30N 43°35' E 010°18'1 1.4
2018-Apr-21 05:01N 43°34' E 010°18'3 6.2
2018-Apr-21 04:31N 43°32' E 010°16'917.9
2018-Apr-21 04:01N 43°24' E 010°11'1121.8
2018-Apr-21 03:31N 43°13' E 010°07'1121.3
2018-Apr-21 03:01N 43°03' E 010°04'1121.2
2018-Apr-21 02:30N 42°52' E 010°00'1121.2
2018-Apr-21 02:01N 42°42' E 009°58'4 0.3
2018-Apr-20 11:48N 42°46' E 009°58'621.6
2018-Apr-20 11:31N 42°52' E 009°60'1121.4
2018-Apr-20 11:00N 43°02' E 010°03'1121.4
2018-Apr-20 10:30N 43°13' E 010°07'1121.4
2018-Apr-20 10:01N 43°23' E 010°10'918.5
2018-Apr-20 09:30N 43°32' E 010°15'4 7.3
2018-Apr-20 09:00N 43°35' E 010°18'0 0.2
2018-Apr-20 08:30N 43°35' E 010°18'0 0.0
2018-Apr-20 08:00N 43°35' E 010°18'0 0.0
2018-Apr-20 07:31N 43°35' E 010°18'0 0.0
2018-Apr-20 07:00N 43°35' E 010°18'0 0.0
2018-Apr-20 06:30N 43°35' E 010°18'0 0.0
2018-Apr-20 06:00N 43°35' E 010°18'0 0.0
2018-Apr-20 05:30N 43°35' E 010°18'1 1.4
2018-Apr-20 05:00N 43°34' E 010°18'4 8.1
2018-Apr-20 04:30N 43°31' E 010°15'1019.8
2018-Apr-20 04:01N 43°22' E 010°10'1122.1
2018-Apr-20 03:31N 43°11' E 010°06'1122.0
2018-Apr-20 03:00N 43°00' E 010°02'1121.8
2018-Apr-20 02:29N 42°49' E 009°59'8 0.5
2018-Apr-19 11:15N 42°57' E 010°02'521.9
2018-Apr-19 11:00N 43°03' E 010°03'1121.7
2018-Apr-19 10:30N 43°13' E 010°07'1121.8
2018-Apr-19 10:00N 43°24' E 010°10'917.7
2018-Apr-19 09:30N 43°32' E 010°15'4 7.1
2018-Apr-19 09:00N 43°35' E 010°18'0 0.0
2018-Apr-19 08:30N 43°35' E 010°18'0 0.0
2018-Apr-19 08:01N 43°35' E 010°18'0 0.0
2018-Apr-19 07:30N 43°35' E 010°18'0 0.0
2018-Apr-19 07:00N 43°35' E 010°18'0 0.0
2018-Apr-19 06:31N 43°35' E 010°18'0 0.0
2018-Apr-19 06:01N 43°35' E 010°18'0 0.0
2018-Apr-19 05:30N 43°35' E 010°18'2 3.7
2018-Apr-19 05:00N 43°33' E 010°17'3 6.1
2018-Apr-19 04:31N 43°31' E 010°14'816.0
2018-Apr-19 04:01N 43°24' E 010°11'1020.6
2018-Apr-19 03:30N 43°13' E 010°07'1020.5
2018-Apr-19 03:01N 43°04' E 010°04'1020.8
2018-Apr-19 02:30N 42°53' E 010°01'1220.8
2018-Apr-19 01:55N 42°41' E 009°58'11 0.8
2018-Apr-18 10:58N 42°52' E 009°60'1124.4
2018-Apr-18 10:31N 43°03' E 010°03'1224.4
2018-Apr-18 10:01N 43°15' E 010°08'1224.0
2018-Apr-18 09:31N 43°27' E 010°11'714.7
2018-Apr-18 09:00N 43°33' E 010°17'2 4.6
2018-Apr-18 08:30N 43°35' E 010°18'0 0.0
2018-Apr-18 08:00N 43°35' E 010°18'0 0.0
2018-Apr-18 07:30N 43°35' E 010°18'0 0.0
2018-Apr-18 07:00N 43°35' E 010°18'0 0.0
2018-Apr-18 06:30N 43°35' E 010°18'0 0.0
2018-Apr-18 06:00N 43°35' E 010°18'0 0.0
2018-Apr-18 05:30N 43°35' E 010°18'0 0.0
2018-Apr-18 05:00N 43°35' E 010°18'0 0.0
2018-Apr-18 04:30N 43°35' E 010°18'0 0.0
2018-Apr-18 04:00N 43°35' E 010°18'0 0.0
2018-Apr-18 03:30N 43°35' E 010°18'0 0.0
2018-Apr-18 03:00N 43°35' E 010°18'0 0.0
2018-Apr-18 02:30N 43°35' E 010°18'0 0.0
2018-Apr-18 02:00N 43°35' E 010°18'0 0.0
2018-Apr-18 01:30N 43°35' E 010°18'0 0.0
2018-Apr-18 01:00N 43°35' E 010°18'0 0.0
2018-Apr-18 00:30N 43°35' E 010°18'0 0.0
2018-Apr-18 00:00N 43°35' E 010°18'0 0.0
2018-Apr-17 23:30N 43°35' E 010°18'0 0.0
2018-Apr-17 23:00N 43°35' E 010°18'1 1.2
2018-Apr-17 22:30N 43°34' E 010°18'3 6.8
2018-Apr-17 22:00N 43°31' E 010°16'1 1.5
2018-Apr-17 21:30N 43°31' E 010°15'714.1
2018-Apr-17 21:01N 43°24' E 010°15'1223.2
2018-Apr-17 20:31N 43°13' E 010°20'1223.3
2018-Apr-17 20:01N 43°02' E 010°24'1122.8
2018-Apr-17 19:30N 42°51' E 010°31'1122.7
2018-Apr-17 19:00N 42°42' E 010°39'1122.5
2018-Apr-17 18:30N 42°33' E 010°49'28422.8
2018-Apr-17 06:03N 38°59' E 014°56'520.9
2018-Apr-17 05:48N 38°55' E 014°60'721.2
2018-Apr-17 05:28N 38°50' E 015°06'1021.6
2018-Apr-17 05:00N 38°42' E 015°14'1123.0
2018-Apr-17 04:30N 38°34' E 015°24'1123.1
2018-Apr-17 04:01N 38°25' E 015°34'1121.7
2018-Apr-17 03:29N 38°17' E 015°43'1020.0
2018-Apr-17 03:00N 38°09' E 015°36'1020.2
2018-Apr-17 02:30N 37°59' E 015°36'1019.3
2018-Apr-17 02:00N 37°53' E 015°45'40720.1
2018-Apr-16 05:43N 37°27' E 024°19'10823.3
2018-Apr-16 01:03N 39°05' E 025°19'123.0
2018-Apr-16 01:00N 39°06' E 025°20'3723.1
2018-Apr-15 23:23N 39°39' E 025°43'923.0
2018-Apr-15 22:59N 39°47' E 025°49'  

Dump ship's entire track history